Terminal Aerodrome Forecast
Issued by NWS Brownsville, TX

Home | Current Version | Previous Version | Text Only | Print | Product List | Glossary On
Versions: 1 2 3 4 5 6 7 8 9 10 11 12 13 14
000
FTUS44 KBRO 230520
TAFMFE
TAF
KMFE 230520Z 2306/2406 15013KT P6SM FEW015
     FM231500 15017G25KT P6SM SCT040
     FM240500 14010KT P6SM FEW020=

USA.gov is the U.S. government's official web portal to all federal, state and local government web resources and services.